createdAt,value
2024-02-19T00:01:45.770Z,7.37
2024-02-19T00:04:12.562Z,7.54
2024-02-19T00:06:39.846Z,7.29
2024-02-19T00:09:06.451Z,7.44
2024-02-19T00:11:33.118Z,7.24
2024-02-19T00:13:59.800Z,7.20
2024-02-19T00:16:26.435Z,7.02
2024-02-19T00:18:53.232Z,7.27
2024-02-19T00:21:19.964Z,7.48
2024-02-19T00:23:46.692Z,7.46
2024-02-19T00:26:14.374Z,7.37
2024-02-19T00:28:41.121Z,7.17
2024-02-19T00:31:11.812Z,7.43
2024-02-19T00:33:39.497Z,7.28
2024-02-19T00:36:06.282Z,7.03
2024-02-19T00:38:32.977Z,7.27
2024-02-19T00:40:59.523Z,7.21
2024-02-19T00:43:26.206Z,7.02
2024-02-19T00:45:52.898Z,7.19
2024-02-19T00:48:19.637Z,7.21
2024-02-19T00:50:46.145Z,7.06
2024-02-19T00:53:12.654Z,7.32
2024-02-19T00:55:39.135Z,7.20
2024-02-19T00:58:05.873Z,7.27
2024-02-19T01:00:33.006Z,7.10
2024-02-19T01:02:59.566Z,7.28
2024-02-19T01:05:26.926Z,7.27
2024-02-19T01:07:53.584Z,7.09
2024-02-19T01:10:22.847Z,7.22
2024-02-19T01:12:49.553Z,7.23
2024-02-19T01:15:17.139Z,7.24
2024-02-19T01:17:45.282Z,7.29
2024-02-19T01:20:12.411Z,7.52
2024-02-19T01:22:40.001Z,7.17
2024-02-19T01:25:07.067Z,7.27
2024-02-19T01:27:33.614Z,6.97
2024-02-19T01:30:01.341Z,6.81
2024-02-19T01:32:28.116Z,7.34
2024-02-19T01:34:54.766Z,7.14
2024-02-19T01:37:21.891Z,7.08
2024-02-19T01:39:48.775Z,7.24
2024-02-19T01:42:15.261Z,7.28
2024-02-19T01:44:41.690Z,7.27
2024-02-19T01:47:09.528Z,7.58
2024-02-19T01:49:38.907Z,7.41
2024-02-19T01:52:06.334Z,7.22
2024-02-19T01:54:33.245Z,7.32
2024-02-19T01:57:00.102Z,7.46
2024-02-19T01:59:27.249Z,7.28
2024-02-19T02:01:55.280Z,7.49
2024-02-19T02:04:22.893Z,7.48
2024-02-19T02:06:49.534Z,7.38
2024-02-19T02:09:16.226Z,7.39
2024-02-19T02:11:42.772Z,7.52
2024-02-19T02:14:09.190Z,7.74
2024-02-19T02:16:35.790Z,7.45
2024-02-19T02:19:02.650Z,7.45
2024-02-19T02:21:29.245Z,7.56
2024-02-19T02:23:55.610Z,7.59
2024-02-19T02:26:22.018Z,7.67
2024-02-19T02:28:48.438Z,7.40
2024-02-19T02:31:15.007Z,7.49
2024-02-19T02:33:41.822Z,7.25
2024-02-19T02:36:11.314Z,7.29
2024-02-19T02:38:37.722Z,7.17
2024-02-19T02:41:04.175Z,7.39
2024-02-19T02:43:30.594Z,7.30
2024-02-19T02:45:57.062Z,7.36
2024-02-19T02:48:24.174Z,7.30
2024-02-19T02:50:50.802Z,7.40
2024-02-19T02:53:18.436Z,7.54
2024-02-19T02:55:44.985Z,7.49
2024-02-19T02:58:11.486Z,7.38
2024-02-19T03:00:37.999Z,7.28
2024-02-19T03:03:04.833Z,7.50
2024-02-19T03:05:31.277Z,7.37
2024-02-19T03:07:57.797Z,7.25
2024-02-19T03:10:24.329Z,7.28
2024-02-19T03:12:50.810Z,7.39
2024-02-19T03:15:17.268Z,7.26
2024-02-19T03:17:43.756Z,7.38
2024-02-19T03:20:14.387Z,7.42
2024-02-19T03:22:42.415Z,7.50
2024-02-19T03:25:08.962Z,7.35
2024-02-19T03:27:36.286Z,7.58
2024-02-19T03:30:03.024Z,7.48
2024-02-19T03:32:29.976Z,7.76
2024-02-19T03:34:56.714Z,7.57
2024-02-19T03:37:23.634Z,7.49
2024-02-19T03:39:50.509Z,7.34
2024-02-19T03:42:17.014Z,7.41
2024-02-19T03:44:43.453Z,7.44
2024-02-19T03:47:09.917Z,7.26
2024-02-19T03:49:36.349Z,7.29
2024-02-19T03:52:02.825Z,7.30
2024-02-19T03:54:29.319Z,7.33
2024-02-19T03:56:55.815Z,7.43
2024-02-19T03:59:23.594Z,7.59
2024-02-19T04:01:50.463Z,7.71
2024-02-19T04:04:18.462Z,7.49
2024-02-19T04:06:45.068Z,7.60
2024-02-19T04:09:11.499Z,7.75
2024-02-19T04:11:37.947Z,7.61
2024-02-19T04:14:04.392Z,7.68
2024-02-19T04:16:30.896Z,7.42
2024-02-19T04:18:57.520Z,7.32
2024-02-19T04:21:24.106Z,7.20
2024-02-19T04:23:50.544Z,7.39
2024-02-19T04:26:16.934Z,7.45
2024-02-19T04:28:43.318Z,7.40
2024-02-19T04:31:10.355Z,7.43
2024-02-19T04:33:37.002Z,7.56
2024-02-19T04:36:03.626Z,7.51
2024-02-19T04:38:30.040Z,7.32
2024-02-19T04:40:56.549Z,7.42
2024-02-19T04:43:23.187Z,7.58
2024-02-19T04:45:49.641Z,7.24
2024-02-19T04:48:16.100Z,7.34
2024-02-19T04:50:42.528Z,7.28
2024-02-19T04:53:08.940Z,7.38
2024-02-19T04:55:35.452Z,7.31
2024-02-19T04:58:01.917Z,7.29
2024-02-19T05:00:31.869Z,7.56
2024-02-19T05:02:58.410Z,7.25
2024-02-19T05:05:25.052Z,7.42
2024-02-19T05:07:51.545Z,7.37
2024-02-19T05:10:18.187Z,7.34
2024-02-19T05:12:44.724Z,7.27
2024-02-19T05:15:11.207Z,7.18
2024-02-19T05:17:37.729Z,7.37
2024-02-19T05:20:05.379Z,7.47
2024-02-19T05:22:31.983Z,7.67
2024-02-19T05:24:58.564Z,7.42
2024-02-19T05:27:25.434Z,7.35
2024-02-19T05:29:52.140Z,7.15
2024-02-19T05:32:20.423Z,7.11
2024-02-19T05:34:47.091Z,7.18
2024-02-19T05:37:15.132Z,7.28
2024-02-19T05:39:42.063Z,7.18
2024-02-19T05:42:08.791Z,7.25
2024-02-19T05:44:35.392Z,7.18
2024-02-19T05:47:02.072Z,7.18
2024-02-19T05:49:28.744Z,7.11
2024-02-19T05:51:55.318Z,7.40
2024-02-19T05:54:25.623Z,7.32
2024-02-19T05:56:52.056Z,7.08
2024-02-19T05:59:18.425Z,7.20
2024-02-19T06:01:45.041Z,7.10
2024-02-19T06:04:11.736Z,7.30
2024-02-19T06:06:38.406Z,7.27
2024-02-19T06:09:05.819Z,7.19
2024-02-19T06:11:32.773Z,7.21
2024-02-19T06:13:59.257Z,7.17
2024-02-19T06:16:25.846Z,7.27
2024-02-19T06:18:52.817Z,7.28
2024-02-19T06:21:19.271Z,7.43
2024-02-19T06:23:45.692Z,7.58
2024-02-19T06:26:12.922Z,7.30
2024-02-19T06:28:40.250Z,7.51
2024-02-19T06:31:06.904Z,7.24
2024-02-19T06:33:33.426Z,7.56
2024-02-19T06:35:59.854Z,7.49
2024-02-19T06:38:26.230Z,7.51
2024-02-19T06:40:53.776Z,7.52
2024-02-19T06:43:20.805Z,7.46
2024-02-19T06:45:47.357Z,7.33
2024-02-19T06:48:14.090Z,7.20
2024-02-19T06:50:40.796Z,7.36
2024-02-19T06:53:07.449Z,7.38
2024-02-19T06:55:34.376Z,7.45
2024-02-19T06:58:00.838Z,7.47
2024-02-19T07:00:27.738Z,7.45
2024-02-19T07:02:54.228Z,7.61
2024-02-19T07:05:21.185Z,7.60
2024-02-19T07:07:48.612Z,7.58
2024-02-19T07:10:15.234Z,7.62
2024-02-19T07:12:41.711Z,7.47
2024-02-19T07:15:08.289Z,7.54
2024-02-19T07:17:36.021Z,7.60
2024-02-19T07:20:04.102Z,7.75
2024-02-19T07:22:30.607Z,7.58
2024-02-19T07:25:06.029Z,7.59
2024-02-19T07:27:40.334Z,7.57
2024-02-19T07:30:07.071Z,7.54
2024-02-19T07:32:33.567Z,7.59
2024-02-19T07:35:00.073Z,7.58
2024-02-19T07:37:26.704Z,7.74
2024-02-19T07:39:53.368Z,7.68
2024-02-19T07:42:19.765Z,7.80
2024-02-19T07:44:46.257Z,7.77
2024-02-19T07:47:12.756Z,7.79
2024-02-19T07:49:39.311Z,7.73
2024-02-19T07:52:06.077Z,7.72
2024-02-19T07:54:32.513Z,7.67
2024-02-19T07:56:58.950Z,7.90
2024-02-19T07:59:25.407Z,7.74
2024-02-19T08:01:51.865Z,7.83
2024-02-19T08:04:18.469Z,7.56
2024-02-19T08:06:45.010Z,7.70
2024-02-19T08:09:11.523Z,7.84
2024-02-19T08:11:38.233Z,7.89
2024-02-19T08:14:04.974Z,8.12
2024-02-19T08:16:31.524Z,7.66
2024-02-19T08:18:58.203Z,7.57
2024-02-19T08:21:24.749Z,7.40
2024-02-19T08:23:51.195Z,7.54
2024-02-19T08:26:17.582Z,7.68
2024-02-19T08:28:44.020Z,7.71
2024-02-19T08:31:10.496Z,7.81
2024-02-19T08:33:37.098Z,7.80
2024-02-19T08:36:03.867Z,7.58
2024-02-19T08:38:31.712Z,8.13
2024-02-19T08:40:58.088Z,7.64
2024-02-19T08:43:24.665Z,7.92
2024-02-19T08:45:51.196Z,7.77
2024-02-19T08:48:18.258Z,7.90
2024-02-19T08:50:46.530Z,8.44
2024-02-19T08:53:12.911Z,8.29
2024-02-19T08:55:39.475Z,8.74
2024-02-19T08:58:07.170Z,8.06
2024-02-19T09:00:34.534Z,8.17
2024-02-19T09:03:01.045Z,8.33
2024-02-19T09:05:28.282Z,8.29
2024-02-19T09:07:54.961Z,8.03
2024-02-19T09:10:21.874Z,8.46
2024-02-19T09:12:48.288Z,8.40
2024-02-19T09:15:14.751Z,8.53
2024-02-19T09:17:41.277Z,8.62
2024-02-19T09:20:08.331Z,8.31
2024-02-19T09:22:34.931Z,8.51
2024-02-19T09:25:02.451Z,8.66
2024-02-19T09:27:28.919Z,8.41
2024-02-19T09:29:57.340Z,8.74
2024-02-19T09:32:23.910Z,9.34
2024-02-19T09:34:50.473Z,8.75
2024-02-19T09:37:16.970Z,8.53
2024-02-19T09:39:43.641Z,8.64
2024-02-19T09:42:10.438Z,8.52
2024-02-19T09:44:37.222Z,8.28
2024-02-19T09:47:04.556Z,8.21
2024-02-19T09:49:32.866Z,7.83
2024-02-19T09:52:02.928Z,8.11
2024-02-19T09:54:30.108Z,8.11
2024-02-19T09:56:57.782Z,8.29
2024-02-19T09:59:25.048Z,8.58
2024-02-19T10:01:52.074Z,8.40
2024-02-19T10:04:18.759Z,8.37
2024-02-19T10:06:45.936Z,8.48
2024-02-19T10:09:12.889Z,8.85
2024-02-19T10:11:39.785Z,8.45
2024-02-19T10:14:06.626Z,8.74
2024-02-19T10:16:33.069Z,8.48
2024-02-19T10:19:10.409Z,8.65
2024-02-19T10:21:37.972Z,8.47
2024-02-19T10:24:04.695Z,8.58
2024-02-19T10:26:31.119Z,8.75
2024-02-19T10:28:58.478Z,8.51
2024-02-19T10:31:25.758Z,8.71
2024-02-19T10:33:52.447Z,8.68
2024-02-19T10:36:21.070Z,8.82
2024-02-19T10:38:47.639Z,9.17
2024-02-19T10:41:14.396Z,8.90
2024-02-19T10:43:41.091Z,9.23
2024-02-19T10:46:07.646Z,9.13
2024-02-19T10:48:34.410Z,9.09
2024-02-19T10:51:04.538Z,9.34
2024-02-19T10:53:31.050Z,9.43
2024-02-19T10:56:16.913Z,10.02
2024-02-19T10:59:00.668Z,9.82
2024-02-19T11:01:47.731Z,9.47
2024-02-19T11:04:17.599Z,9.17
2024-02-19T11:06:55.423Z,9.02
2024-02-19T11:09:28.851Z,8.66
2024-02-19T11:11:58.443Z,8.56
2024-02-19T11:14:26.795Z,8.84
2024-02-19T11:16:58.177Z,8.54
2024-02-19T11:19:24.962Z,8.38
2024-02-19T11:22:01.366Z,8.08
2024-02-19T11:24:30.542Z,8.04
2024-02-19T11:26:56.988Z,7.99
2024-02-19T11:29:30.614Z,8.11
2024-02-19T11:32:01.041Z,8.00
2024-02-19T11:34:27.537Z,7.74
2024-02-19T11:36:56.278Z,7.84
2024-02-19T11:39:22.778Z,8.32
2024-02-19T11:41:49.248Z,8.16
2024-02-19T11:44:17.073Z,8.30
2024-02-19T11:46:43.760Z,8.05
2024-02-19T11:49:10.618Z,8.14
2024-02-19T11:51:40.059Z,8.23
2024-02-19T11:54:06.792Z,7.63
2024-02-19T11:56:46.506Z,7.43
2024-02-19T11:59:14.764Z,7.46
2024-02-19T12:01:41.380Z,7.41
2024-02-19T12:04:08.645Z,7.11
2024-02-19T12:06:36.708Z,7.28
2024-02-19T12:09:03.468Z,7.26
2024-02-19T12:11:31.655Z,7.38
2024-02-19T12:13:59.311Z,7.53
2024-02-19T12:16:29.078Z,7.46
2024-02-19T12:18:56.058Z,7.33
2024-02-19T12:21:23.530Z,7.09
2024-02-19T12:23:53.723Z,7.08
2024-02-19T12:26:20.653Z,6.89
2024-02-19T12:28:47.361Z,7.46
2024-02-19T12:31:14.949Z,7.18
2024-02-19T12:33:42.008Z,7.37
2024-02-19T12:36:13.481Z,7.51
2024-02-19T12:38:43.033Z,7.45
2024-02-19T12:41:13.257Z,7.93
2024-02-19T12:43:40.201Z,7.63
2024-02-19T12:46:07.836Z,7.71
2024-02-19T12:48:39.284Z,7.89
2024-02-19T12:51:07.160Z,7.60
2024-02-19T12:53:35.288Z,7.48
2024-02-19T12:56:01.978Z,7.78
2024-02-19T12:58:28.738Z,7.91
2024-02-19T13:00:55.318Z,8.27
2024-02-19T13:03:21.844Z,8.18
2024-02-19T13:05:49.137Z,8.49
2024-02-19T13:08:16.979Z,8.44
2024-02-19T13:10:43.406Z,8.39
2024-02-19T13:13:13.217Z,8.61
2024-02-19T13:15:40.950Z,8.60
2024-02-19T13:18:08.655Z,8.89
2024-02-19T13:20:36.058Z,8.37
2024-02-19T13:23:02.767Z,8.61
2024-02-19T13:25:29.226Z,8.39
2024-02-19T13:27:55.748Z,8.25
2024-02-19T13:30:22.243Z,8.09
2024-02-19T13:32:49.899Z,8.41
2024-02-19T13:35:19.049Z,7.97
2024-02-19T13:37:46.091Z,8.08
2024-02-19T13:40:14.123Z,8.22
2024-02-19T13:42:41.249Z,8.48
2024-02-19T13:45:10.292Z,8.53
2024-02-19T13:47:40.583Z,8.66
2024-02-19T13:50:08.276Z,8.49
2024-02-19T13:52:35.657Z,8.62
2024-02-19T13:55:03.091Z,8.54
2024-02-19T13:57:29.669Z,8.37
2024-02-19T13:59:59.979Z,8.34
2024-02-19T14:02:27.866Z,7.97
2024-02-19T14:04:54.543Z,8.34
2024-02-19T14:07:21.494Z,8.07
2024-02-19T14:09:48.040Z,8.18
2024-02-19T14:12:14.446Z,8.26
2024-02-19T14:14:40.820Z,8.43
2024-02-19T14:17:10.933Z,8.28
2024-02-19T14:19:39.061Z,8.40
2024-02-19T14:22:05.635Z,8.46
2024-02-19T14:24:32.080Z,8.41
2024-02-19T14:26:59.371Z,8.54
2024-02-19T14:29:28.302Z,8.17
2024-02-19T14:31:54.693Z,8.33
2024-02-19T14:34:23.909Z,8.62
2024-02-19T14:36:51.709Z,8.29
2024-02-19T14:39:21.322Z,8.01
2024-02-19T14:41:48.458Z,8.24
2024-02-19T14:44:15.008Z,8.57
2024-02-19T14:46:51.050Z,8.12
2024-02-19T14:49:21.233Z,8.23
2024-02-19T14:51:47.872Z,8.19
2024-02-19T14:54:14.333Z,7.83
2024-02-19T14:56:42.912Z,7.65
2024-02-19T14:59:09.439Z,7.94
2024-02-19T15:01:38.257Z,8.01
2024-02-19T15:04:05.335Z,7.76
2024-02-19T15:06:32.156Z,7.66
2024-02-19T15:08:58.680Z,7.94
2024-02-19T15:11:25.103Z,7.94
2024-02-19T15:13:51.584Z,7.92
2024-02-19T15:16:18.104Z,7.84
2024-02-19T15:18:44.827Z,7.84
2024-02-19T15:21:11.344Z,7.95
2024-02-19T15:23:40.659Z,7.63
2024-02-19T15:26:10.846Z,7.83
2024-02-19T15:28:40.559Z,7.86
2024-02-19T15:31:07.867Z,8.01
2024-02-19T15:33:34.427Z,8.07
2024-02-19T15:36:03.144Z,8.01
2024-02-19T15:38:29.547Z,7.85
2024-02-19T15:40:56.138Z,7.84
2024-02-19T15:43:22.710Z,7.63
2024-02-19T15:45:49.264Z,7.52
2024-02-19T15:48:15.777Z,7.74
2024-02-19T15:50:43.025Z,7.31
2024-02-19T15:53:21.907Z,7.59
2024-02-19T15:55:56.665Z,7.57
2024-02-19T15:58:23.875Z,7.55
2024-02-19T16:00:50.578Z,7.62
2024-02-19T16:03:17.212Z,7.38
2024-02-19T16:05:44.595Z,7.55
2024-02-19T16:08:29.849Z,7.21
2024-02-19T16:11:01.031Z,7.16
2024-02-19T16:13:27.477Z,7.31
2024-02-19T16:15:53.999Z,7.32
2024-02-19T16:18:20.486Z,7.10
2024-02-19T16:20:50.254Z,7.02
2024-02-19T16:23:16.683Z,7.11
2024-02-19T16:25:43.182Z,7.07
2024-02-19T16:28:09.609Z,7.01
2024-02-19T16:30:36.045Z,6.91
2024-02-19T16:33:02.807Z,6.74
2024-02-19T16:35:29.369Z,7.01
2024-02-19T16:37:56.189Z,6.82
2024-02-19T16:40:22.828Z,6.88
2024-02-19T16:42:49.374Z,6.91
2024-02-19T16:45:15.903Z,7.19
2024-02-19T16:47:42.440Z,7.01
2024-02-19T16:50:09.000Z,6.96
2024-02-19T16:52:35.508Z,6.98
2024-02-19T16:55:07.608Z,7.06
2024-02-19T16:57:34.340Z,6.98
2024-02-19T17:00:00.946Z,7.03
2024-02-19T17:02:28.260Z,6.98
2024-02-19T17:04:54.792Z,6.97
2024-02-19T17:07:22.439Z,7.00
2024-02-19T17:09:49.096Z,6.90
2024-02-19T17:12:15.556Z,6.83
2024-02-19T17:14:45.215Z,6.70
2024-02-19T17:17:11.971Z,6.58
2024-02-19T17:19:39.338Z,6.81
2024-02-19T17:22:06.389Z,6.74
2024-02-19T17:24:37.835Z,6.60
2024-02-19T17:27:04.742Z,6.62
2024-02-19T17:29:31.610Z,6.67
2024-02-19T17:31:58.184Z,6.67
2024-02-19T17:34:26.274Z,6.68
2024-02-19T17:36:55.937Z,6.79
2024-02-19T17:39:26.473Z,6.45
2024-02-19T17:41:53.252Z,6.51
2024-02-19T17:44:22.554Z,6.90
2024-02-19T17:46:52.941Z,6.63
2024-02-19T17:49:19.947Z,6.53
2024-02-19T17:51:46.641Z,6.61
2024-02-19T17:54:14.867Z,6.69
2024-02-19T17:56:41.371Z,6.68
2024-02-19T17:59:12.812Z,6.88
2024-02-19T18:01:39.658Z,6.91
2024-02-19T18:04:06.347Z,6.87
2024-02-19T18:06:35.205Z,6.85
2024-02-19T18:09:04.031Z,6.92
2024-02-19T18:11:30.697Z,6.89
2024-02-19T18:13:57.554Z,6.82
2024-02-19T18:16:24.087Z,6.85
2024-02-19T18:18:50.823Z,6.83
2024-02-19T18:21:21.439Z,6.83
2024-02-19T18:23:56.207Z,6.89
2024-02-19T18:26:24.992Z,6.92
2024-02-19T18:28:53.184Z,6.84
2024-02-19T18:31:19.726Z,6.81
2024-02-19T18:33:46.284Z,6.62
2024-02-19T18:36:12.862Z,6.68
2024-02-19T18:38:40.125Z,6.69
2024-02-19T18:41:07.759Z,6.53
2024-02-19T18:43:34.526Z,6.55
2024-02-19T18:46:02.660Z,6.61
2024-02-19T18:48:33.712Z,6.49
2024-02-19T18:51:00.212Z,6.70
2024-02-19T18:53:28.073Z,6.48
2024-02-19T18:56:01.347Z,6.41
2024-02-19T18:58:29.326Z,6.40
2024-02-19T19:00:56.679Z,6.26
2024-02-19T19:03:24.444Z,6.28
2024-02-19T19:05:52.972Z,6.36
2024-02-19T19:08:19.824Z,6.28
2024-02-19T19:10:46.692Z,6.35
2024-02-19T19:13:13.295Z,6.33
2024-02-19T19:15:42.640Z,6.36
2024-02-19T19:18:10.583Z,6.45
2024-02-19T19:20:40.072Z,6.38
2024-02-19T19:23:06.835Z,6.39
2024-02-19T19:25:33.517Z,6.28
2024-02-19T19:28:00.254Z,6.32
2024-02-19T19:30:26.937Z,6.30
2024-02-19T19:32:53.995Z,6.34
2024-02-19T19:35:24.339Z,6.33
2024-02-19T19:37:51.504Z,6.30
2024-02-19T19:40:17.965Z,6.27
2024-02-19T19:42:48.126Z,6.29
2024-02-19T19:45:15.261Z,6.19
2024-02-19T19:47:42.153Z,6.23
2024-02-19T19:50:09.259Z,6.21
2024-02-19T19:52:36.157Z,6.19
2024-02-19T19:55:03.032Z,6.13
2024-02-19T19:57:31.534Z,6.11
2024-02-19T20:00:00.446Z,6.10
2024-02-19T20:02:27.241Z,6.16
2024-02-19T20:04:54.446Z,6.18
2024-02-19T20:07:20.951Z,6.13
2024-02-19T20:09:47.870Z,6.10
2024-02-19T20:12:14.398Z,6.13
2024-02-19T20:14:40.888Z,6.17
2024-02-19T20:17:07.730Z,6.16
2024-02-19T20:19:34.317Z,6.14
2024-02-19T20:22:01.468Z,6.15
2024-02-19T20:24:27.969Z,6.19
2024-02-19T20:26:58.653Z,6.19
2024-02-19T20:29:25.096Z,6.18
2024-02-19T20:31:51.506Z,6.19
2024-02-19T20:34:18.422Z,6.20
2024-02-19T20:36:44.983Z,6.19
2024-02-19T20:39:15.051Z,6.22
2024-02-19T20:41:42.622Z,6.23
2024-02-19T20:44:09.073Z,6.25
2024-02-19T20:46:35.626Z,6.22
2024-02-19T20:49:02.321Z,6.26
2024-02-19T20:51:29.669Z,6.24
2024-02-19T20:53:56.590Z,6.24
2024-02-19T20:56:23.005Z,6.22
2024-02-19T20:58:50.080Z,6.21
2024-02-19T21:01:16.646Z,6.20
2024-02-19T21:03:49.263Z,6.22
2024-02-19T21:06:16.433Z,6.25
2024-02-19T21:08:42.847Z,6.24
2024-02-19T21:11:13.037Z,6.24
2024-02-19T21:13:40.332Z,6.21
2024-02-19T21:16:08.063Z,6.25
2024-02-19T21:18:42.640Z,6.37
2024-02-19T21:21:18.118Z,6.30
2024-02-19T21:23:54.593Z,6.30
2024-02-19T21:26:21.079Z,6.34
2024-02-19T21:28:47.519Z,6.29
2024-02-19T21:31:16.184Z,6.30
2024-02-19T21:33:42.806Z,6.28
2024-02-19T21:36:09.401Z,6.29
2024-02-19T21:38:35.805Z,6.29
2024-02-19T21:41:03.585Z,6.27
2024-02-19T21:43:30.234Z,6.26
2024-02-19T21:45:57.498Z,6.24
2024-02-19T21:48:24.284Z,6.28
2024-02-19T21:50:51.028Z,6.25
2024-02-19T21:53:18.157Z,6.29
2024-02-19T21:55:44.647Z,6.30
2024-02-19T21:58:11.194Z,6.27
2024-02-19T22:00:37.674Z,6.25
2024-02-19T22:03:04.151Z,6.28
2024-02-19T22:05:31.234Z,6.26
2024-02-19T22:07:58.917Z,6.29
2024-02-19T22:10:25.442Z,6.33
2024-02-19T22:12:51.959Z,6.35
2024-02-19T22:15:18.447Z,6.33
2024-02-19T22:17:45.975Z,6.21
2024-02-19T22:20:12.438Z,6.28
2024-02-19T22:22:39.102Z,6.25
2024-02-19T22:25:06.087Z,6.31
2024-02-19T22:27:32.617Z,6.26
2024-02-19T22:29:59.054Z,6.21
2024-02-19T22:32:25.476Z,6.14
2024-02-19T22:34:52.019Z,6.28
2024-02-19T22:37:18.963Z,6.32
2024-02-19T22:39:45.911Z,6.31
2024-02-19T22:42:12.874Z,6.32
2024-02-19T22:44:39.543Z,6.32
2024-02-19T22:47:08.153Z,6.34
2024-02-19T22:49:36.169Z,6.39
2024-02-19T22:52:02.691Z,6.34
2024-02-19T22:54:29.120Z,6.44
2024-02-19T22:56:55.544Z,6.39
2024-02-19T22:59:23.115Z,6.46
2024-02-19T23:17:44.868Z,5.61
2024-02-19T23:20:11.783Z,5.80
2024-02-19T23:22:40.043Z,5.94
2024-02-19T23:25:07.643Z,6.12
2024-02-19T23:27:34.647Z,6.16
2024-02-19T23:30:02.699Z,6.24
2024-02-19T23:32:29.753Z,6.28
2024-02-19T23:34:57.239Z,6.34
2024-02-19T23:37:23.878Z,6.40
2024-02-19T23:39:50.539Z,6.31
2024-02-19T23:42:17.182Z,6.46
2024-02-19T23:44:44.589Z,6.50
2024-02-19T23:47:11.196Z,6.46
2024-02-19T23:49:38.687Z,6.43
2024-02-19T23:52:05.999Z,6.54
2024-02-19T23:54:32.703Z,6.52
2024-02-19T23:56:59.296Z,6.52
2024-02-19T23:59:26.197Z,6.55
